createdAt,value
2023-05-08T00:00:09.361Z,15.30
2023-05-08T00:02:37.183Z,15.38
2023-05-08T00:05:05.358Z,15.31
2023-05-08T00:07:33.107Z,15.34
2023-05-08T00:10:01.210Z,15.44
2023-05-08T00:12:28.983Z,15.59
2023-05-08T00:14:57.981Z,15.60
2023-05-08T00:17:25.973Z,15.61
2023-05-08T00:19:53.914Z,15.63
2023-05-08T00:22:21.826Z,15.69
2023-05-08T00:24:49.463Z,15.56
2023-05-08T00:27:17.256Z,15.64
2023-05-08T00:29:45.003Z,15.73
2023-05-08T00:32:14.207Z,15.77
2023-05-08T00:34:42.758Z,15.75
2023-05-08T00:37:10.416Z,15.78
2023-05-08T00:39:38.345Z,15.80
2023-05-08T00:42:06.244Z,15.82
2023-05-08T00:44:34.094Z,15.82
2023-05-08T00:47:01.772Z,15.82
2023-05-08T00:49:30.947Z,15.80
2023-05-08T00:51:59.046Z,15.72
2023-05-08T00:54:28.070Z,15.70
2023-05-08T00:56:56.517Z,15.62
2023-05-08T00:59:26.963Z,15.59
2023-05-08T01:01:54.985Z,15.58
2023-05-08T01:04:26.685Z,15.60
2023-05-08T01:06:55.678Z,15.52
2023-05-08T01:09:23.452Z,15.56
2023-05-08T01:11:57.016Z,15.60
2023-05-08T01:14:33.263Z,15.65
2023-05-08T01:17:11.509Z,15.67
2023-05-08T01:19:56.253Z,15.72
2023-05-08T01:22:55.008Z,15.67
2023-05-08T01:25:46.604Z,15.60
2023-05-08T01:28:32.094Z,15.59
2023-05-08T01:31:09.112Z,15.63
2023-05-08T01:33:46.887Z,15.63
2023-05-08T01:36:24.555Z,15.56
2023-05-08T01:38:57.861Z,15.47
2023-05-08T01:41:28.382Z,15.60
2023-05-08T01:44:07.163Z,15.57
2023-05-08T01:46:35.011Z,15.53
2023-05-08T01:49:09.142Z,15.57
2023-05-08T01:51:41.438Z,15.60
2023-05-08T01:54:12.093Z,15.62
2023-05-08T01:56:43.632Z,15.58
2023-05-08T01:59:14.093Z,15.60
2023-05-08T02:01:48.384Z,15.57
2023-05-08T02:04:18.927Z,15.57
2023-05-08T02:06:47.140Z,15.58
2023-05-08T02:09:15.717Z,15.60
2023-05-08T02:11:45.821Z,15.63
2023-05-08T02:14:20.373Z,15.66
2023-05-08T02:16:50.046Z,15.67
2023-05-08T02:19:20.760Z,15.69
2023-05-08T02:21:49.890Z,15.71
2023-05-08T02:24:18.409Z,15.72
2023-05-08T02:26:47.315Z,15.74
2023-05-08T02:29:15.463Z,15.75
2023-05-08T02:31:44.649Z,15.74
2023-05-08T02:34:13.597Z,15.74
2023-05-08T02:36:44.025Z,15.69
2023-05-08T02:39:16.156Z,15.69
2023-05-08T02:41:44.157Z,15.69
2023-05-08T02:44:12.479Z,15.73
2023-05-08T02:46:48.913Z,15.66
2023-05-08T02:49:28.701Z,15.68
2023-05-08T02:52:03.509Z,15.57
2023-05-08T02:54:37.839Z,15.59
2023-05-08T02:57:12.163Z,15.59
2023-05-08T02:59:45.386Z,15.60
2023-05-08T03:02:18.950Z,15.61
2023-05-08T03:04:51.387Z,15.62
2023-05-08T03:07:24.364Z,15.64
2023-05-08T03:09:59.787Z,15.66
2023-05-08T03:12:30.080Z,15.66
2023-05-08T03:15:03.897Z,15.68
2023-05-08T03:17:34.389Z,15.68
2023-05-08T03:20:06.713Z,15.69
2023-05-08T03:22:39.883Z,15.70
2023-05-08T03:25:11.168Z,15.66
2023-05-08T03:27:41.901Z,15.68
2023-05-08T03:30:12.016Z,15.69
2023-05-08T03:32:46.233Z,15.71
2023-05-08T03:35:15.660Z,15.67
2023-05-08T03:37:44.857Z,15.64
2023-05-08T03:40:13.609Z,15.66
2023-05-08T03:42:43.031Z,15.64
2023-05-08T03:45:12.379Z,15.66
2023-05-08T03:47:42.330Z,15.62
2023-05-08T03:50:10.890Z,15.61
2023-05-08T03:52:39.420Z,15.62
2023-05-08T03:55:09.762Z,15.62
2023-05-08T03:57:46.915Z,15.63
2023-05-08T04:00:20.584Z,15.64
2023-05-08T04:02:53.655Z,15.66
2023-05-08T04:05:25.873Z,15.65
2023-05-08T04:07:57.718Z,15.66
2023-05-08T04:10:32.082Z,15.67
2023-05-08T04:13:06.489Z,15.68
2023-05-08T04:15:40.324Z,15.70
2023-05-08T04:18:11.569Z,15.69
2023-05-08T04:20:41.900Z,15.73
2023-05-08T04:23:10.490Z,15.74
2023-05-08T04:25:41.717Z,15.77
2023-05-08T04:28:10.007Z,15.78
2023-05-08T04:30:38.683Z,15.81
2023-05-08T04:33:08.267Z,15.83
2023-05-08T04:35:36.840Z,15.83
2023-05-08T04:38:05.162Z,15.84
2023-05-08T04:40:33.026Z,15.83
2023-05-08T04:43:02.088Z,15.81
2023-05-08T04:45:30.101Z,15.81
2023-05-08T04:47:57.768Z,15.84
2023-05-08T04:50:25.778Z,15.84
2023-05-08T04:52:53.760Z,15.85
2023-05-08T04:55:21.586Z,15.89
2023-05-08T04:57:49.383Z,15.90
2023-05-08T05:00:19.655Z,15.93
2023-05-08T05:02:47.800Z,15.92
2023-05-08T05:05:15.961Z,15.93
2023-05-08T05:07:43.604Z,15.95
2023-05-08T05:10:12.558Z,15.90
2023-05-08T05:12:41.008Z,15.91
2023-05-08T05:15:09.686Z,15.85
2023-05-08T05:17:40.366Z,15.79
2023-05-08T05:20:09.615Z,15.67
2023-05-08T05:22:37.464Z,15.62
2023-05-08T05:25:05.700Z,15.62
2023-05-08T05:27:35.724Z,15.62
2023-05-08T05:30:04.945Z,15.60
2023-05-08T05:32:33.255Z,15.61
2023-05-08T05:35:02.444Z,15.63
2023-05-08T05:37:30.244Z,15.64
2023-05-08T05:39:57.813Z,15.59
2023-05-08T05:42:25.818Z,15.61
2023-05-08T05:44:53.705Z,15.61
2023-05-08T05:47:21.524Z,15.58
2023-05-08T05:49:49.419Z,15.53
2023-05-08T05:52:18.346Z,15.51
2023-05-08T05:54:46.549Z,15.51
2023-05-08T05:57:14.817Z,15.41
2023-05-08T05:59:43.342Z,15.42
2023-05-08T06:02:16.522Z,15.48
2023-05-08T06:04:44.912Z,15.51
2023-05-08T06:07:12.520Z,15.54
2023-05-08T06:09:41.992Z,15.56
2023-05-08T06:12:11.968Z,15.54
2023-05-08T06:14:39.892Z,15.55
2023-05-08T06:17:07.798Z,15.45
2023-05-08T06:19:35.637Z,15.53
2023-05-08T06:22:03.384Z,15.59
2023-05-08T06:24:31.387Z,15.67
2023-05-08T06:27:00.282Z,15.74
2023-05-08T06:29:27.976Z,15.74
2023-05-08T06:31:55.628Z,15.77
2023-05-08T06:34:23.317Z,15.80
2023-05-08T06:36:50.858Z,15.79
2023-05-08T06:39:18.590Z,15.73
2023-05-08T06:41:48.189Z,15.75
2023-05-08T06:44:25.832Z,15.64
2023-05-08T06:46:53.517Z,15.69
2023-05-08T06:49:21.251Z,15.71
2023-05-08T06:51:48.823Z,15.67
2023-05-08T06:54:16.519Z,15.67
2023-05-08T06:56:44.326Z,15.59
2023-05-08T06:59:11.901Z,15.59
2023-05-08T07:01:41.692Z,15.58
2023-05-08T07:04:09.282Z,15.59
2023-05-08T07:06:37.433Z,15.53
2023-05-08T07:09:05.301Z,15.49
2023-05-08T07:11:33.102Z,15.55
2023-05-08T07:14:00.654Z,15.54
2023-05-08T07:16:28.300Z,15.50
2023-05-08T07:18:57.262Z,15.58
2023-05-08T07:21:25.171Z,15.65
2023-05-08T07:23:53.752Z,15.62
2023-05-08T07:26:21.617Z,15.68
2023-05-08T07:28:50.710Z,15.69
2023-05-08T07:31:18.367Z,15.76
2023-05-08T07:33:47.135Z,15.78
2023-05-08T07:36:16.119Z,15.83
2023-05-08T07:38:43.718Z,15.91
2023-05-08T07:41:11.412Z,15.90
2023-05-08T07:43:39.172Z,15.92
2023-05-08T07:46:06.909Z,15.95
2023-05-08T07:48:34.474Z,15.86
2023-05-08T07:51:02.037Z,15.88
2023-05-08T07:53:30.981Z,15.95
2023-05-08T07:55:58.527Z,15.98
2023-05-08T07:58:26.817Z,16.04
2023-05-08T08:00:54.663Z,16.13
2023-05-08T08:03:22.562Z,16.21
2023-05-08T08:05:50.242Z,16.19
2023-05-08T08:08:17.911Z,16.21
2023-05-08T08:10:46.865Z,16.33
2023-05-08T08:13:14.469Z,16.35
2023-05-08T08:15:42.088Z,16.34
2023-05-08T08:18:09.712Z,16.36
2023-05-08T08:20:37.578Z,16.44
2023-05-08T08:23:05.992Z,16.58
2023-05-08T08:25:34.029Z,16.64
2023-05-08T08:28:02.927Z,16.68
2023-05-08T08:30:30.686Z,16.71
2023-05-08T08:33:02.001Z,16.75
2023-05-08T08:35:30.400Z,16.72
2023-05-08T08:37:58.133Z,16.77
2023-05-08T08:40:26.036Z,16.78
2023-05-08T08:42:53.585Z,16.75
2023-05-08T08:45:22.674Z,16.78
2023-05-08T08:47:53.751Z,16.82
2023-05-08T08:50:22.363Z,16.85
2023-05-08T08:52:57.306Z,16.75
2023-05-08T08:55:27.231Z,16.73
2023-05-08T08:58:04.570Z,16.66
2023-05-08T09:00:33.991Z,16.70
2023-05-08T09:03:01.909Z,16.75
2023-05-08T09:05:30.586Z,16.89
2023-05-08T09:07:59.239Z,16.95
2023-05-08T09:10:26.956Z,17.04
2023-05-08T09:12:54.929Z,16.91
2023-05-08T09:15:22.814Z,17.00
2023-05-08T09:17:51.823Z,17.08
2023-05-08T09:20:20.164Z,17.11
2023-05-08T09:22:48.745Z,17.17
2023-05-08T09:25:16.485Z,17.27
2023-05-08T09:27:44.199Z,17.47
2023-05-08T09:30:14.280Z,17.61
2023-05-08T09:32:43.936Z,17.62
2023-05-08T09:35:14.162Z,17.70
2023-05-08T09:37:43.669Z,17.58
2023-05-08T09:40:16.362Z,17.61
2023-05-08T09:42:44.110Z,17.60
2023-05-08T09:45:12.572Z,17.76
2023-05-08T09:47:49.003Z,18.01
2023-05-08T09:50:18.709Z,18.25
2023-05-08T09:52:48.950Z,18.35
2023-05-08T09:55:16.663Z,18.28
2023-05-08T09:57:53.875Z,18.28
2023-05-08T10:00:22.648Z,18.17
2023-05-08T10:02:58.509Z,18.26
2023-05-08T10:05:30.068Z,18.26
2023-05-08T10:07:58.339Z,18.19
2023-05-08T10:10:27.779Z,18.15
2023-05-08T10:12:56.770Z,17.97
2023-05-08T10:15:26.040Z,18.02
2023-05-08T10:17:59.251Z,17.76
2023-05-08T10:20:31.095Z,17.82
2023-05-08T10:22:59.642Z,17.98
2023-05-08T10:25:29.935Z,18.03
2023-05-08T10:28:10.823Z,18.14
2023-05-08T10:30:40.927Z,18.13
2023-05-08T10:33:11.493Z,18.18
2023-05-08T10:35:40.980Z,18.18
2023-05-08T10:38:09.745Z,18.16
2023-05-08T10:40:39.042Z,18.14
2023-05-08T10:43:08.058Z,18.09
2023-05-08T10:45:36.205Z,18.05
2023-05-08T10:48:12.180Z,18.11
2023-05-08T10:50:52.811Z,18.10
2023-05-08T10:53:29.972Z,18.26
2023-05-08T10:55:58.006Z,18.29
2023-05-08T10:58:33.036Z,18.31
2023-05-08T11:01:17.463Z,18.44
2023-05-08T11:03:47.469Z,18.53
2023-05-08T11:06:16.654Z,18.63
2023-05-08T11:08:49.386Z,18.62
2023-05-08T11:11:31.473Z,18.71
2023-05-08T11:14:14.717Z,18.92
2023-05-08T11:17:04.949Z,18.94
2023-05-08T11:19:33.148Z,18.89
2023-05-08T11:22:21.713Z,18.92
2023-05-08T11:24:53.205Z,19.20
2023-05-08T11:27:39.613Z,19.32
2023-05-08T11:30:21.102Z,19.60
2023-05-08T11:33:16.913Z,19.86
2023-05-08T11:35:56.630Z,20.16
2023-05-08T11:38:36.217Z,20.22
2023-05-08T11:41:08.049Z,20.25
2023-05-08T11:44:09.152Z,20.41
2023-05-08T11:46:40.840Z,20.30
2023-05-08T11:49:12.342Z,20.26
2023-05-08T11:51:44.703Z,20.15
2023-05-08T11:54:16.565Z,20.06
2023-05-08T11:56:46.301Z,20.14
2023-05-08T11:59:16.167Z,20.05
2023-05-08T12:01:48.546Z,20.16
2023-05-08T12:04:24.313Z,20.30
2023-05-08T12:06:58.601Z,20.41
2023-05-08T12:09:27.919Z,20.36
2023-05-08T12:11:58.527Z,20.22
2023-05-08T12:14:26.198Z,20.16
2023-05-08T12:16:53.946Z,20.20
2023-05-08T12:19:21.891Z,20.30
2023-05-08T12:21:50.226Z,20.38
2023-05-08T12:24:22.755Z,20.34
2023-05-08T12:26:55.386Z,20.37
2023-05-08T12:29:23.653Z,20.27
2023-05-08T12:31:51.464Z,20.22
2023-05-08T12:34:19.392Z,20.18
2023-05-08T12:36:46.985Z,20.06
2023-05-08T12:39:16.408Z,19.90
2023-05-08T12:41:48.478Z,19.90
2023-05-08T12:44:24.266Z,19.91
2023-05-08T12:46:52.970Z,19.96
2023-05-08T12:49:25.500Z,19.90
2023-05-08T12:51:53.783Z,19.98
2023-05-08T12:54:21.371Z,20.05
2023-05-08T12:56:51.155Z,20.11
2023-05-08T12:59:32.420Z,20.16
2023-05-08T13:02:00.457Z,20.21
2023-05-08T13:04:28.346Z,20.27
2023-05-08T13:06:56.672Z,20.34
2023-05-08T13:09:24.462Z,20.33
2023-05-08T13:11:52.251Z,20.34
2023-05-08T13:14:20.004Z,20.26
2023-05-08T13:16:49.212Z,20.39
2023-05-08T13:19:17.774Z,20.43
2023-05-08T13:21:47.246Z,20.50
2023-05-08T13:24:14.944Z,20.52
2023-05-08T13:26:42.958Z,20.58
2023-05-08T13:29:10.542Z,20.48
2023-05-08T13:31:38.292Z,20.29
2023-05-08T13:34:07.256Z,20.35
2023-05-08T13:36:34.962Z,20.17
2023-05-08T13:39:02.605Z,20.21
2023-05-08T13:41:30.182Z,20.22
2023-05-08T13:43:57.754Z,20.10
2023-05-08T13:46:25.871Z,20.09
2023-05-08T13:48:53.482Z,19.92
2023-05-08T13:51:22.481Z,19.93
2023-05-08T13:53:50.200Z,19.88
2023-05-08T13:56:17.833Z,19.82
2023-05-08T13:58:45.417Z,19.76
2023-05-08T14:01:25.932Z,19.68
2023-05-08T14:03:54.867Z,19.60
2023-05-08T14:06:24.150Z,19.56
2023-05-08T14:08:54.447Z,19.48
2023-05-08T14:11:23.934Z,19.50
2023-05-08T14:13:51.513Z,19.46
2023-05-08T14:16:19.246Z,19.27
2023-05-08T14:18:46.869Z,19.31
2023-05-08T14:21:14.557Z,19.25
2023-05-08T14:23:44.523Z,19.33
2023-05-08T14:26:12.179Z,19.33
2023-05-08T14:28:39.740Z,19.32
2023-05-08T14:31:07.347Z,19.41
2023-05-08T14:33:35.463Z,19.38
2023-05-08T14:36:03.560Z,19.45
2023-05-08T14:38:31.137Z,19.36
2023-05-08T14:41:03.102Z,19.38
2023-05-08T14:43:31.977Z,19.31
2023-05-08T14:45:59.622Z,19.16
2023-05-08T14:48:27.509Z,19.15
2023-05-08T14:50:55.252Z,19.03
2023-05-08T14:53:23.221Z,18.99
2023-05-08T14:55:51.225Z,18.98
2023-05-08T14:58:20.524Z,19.03
2023-05-08T15:00:48.081Z,19.08
2023-05-08T15:03:15.982Z,19.17
2023-05-08T15:05:43.754Z,19.25
2023-05-08T15:08:11.813Z,19.36
2023-05-08T15:10:39.403Z,19.46
2023-05-08T15:13:07.258Z,19.55
2023-05-08T15:15:36.172Z,19.61
2023-05-08T15:18:04.593Z,19.80
2023-05-08T15:20:32.226Z,19.93
2023-05-08T15:23:00.100Z,20.06
2023-05-08T15:25:27.747Z,20.32
2023-05-08T15:27:55.932Z,20.56
2023-05-08T15:30:25.390Z,21.02
2023-05-08T15:32:54.453Z,21.34
2023-05-08T15:35:22.267Z,21.72
2023-05-08T15:37:49.988Z,21.86
2023-05-08T15:40:18.117Z,21.86
2023-05-08T15:42:45.654Z,21.69
2023-05-08T15:45:13.425Z,21.56
2023-05-08T15:47:41.317Z,21.44
2023-05-08T15:50:11.137Z,21.34
2023-05-08T15:52:38.728Z,20.84
2023-05-08T15:55:06.973Z,20.66
2023-05-08T15:57:34.556Z,20.55
2023-05-08T16:00:02.410Z,20.53
2023-05-08T16:02:32.746Z,20.77
2023-05-08T16:05:00.385Z,21.11
2023-05-08T16:07:29.291Z,21.44
2023-05-08T16:09:56.997Z,21.71
2023-05-08T16:12:24.548Z,21.58
2023-05-08T16:14:52.282Z,21.63
2023-05-08T16:17:19.834Z,21.60
2023-05-08T16:19:47.395Z,21.10
2023-05-08T16:22:15.003Z,21.10
2023-05-08T16:24:44.059Z,21.20
2023-05-08T16:27:12.404Z,21.28
2023-05-08T16:29:40.192Z,21.01
2023-05-08T16:32:07.967Z,20.85
2023-05-08T16:34:36.568Z,20.99
2023-05-08T16:37:04.368Z,20.91
2023-05-08T16:39:31.984Z,20.84
2023-05-08T16:42:01.046Z,20.83
2023-05-08T16:44:28.628Z,20.58
2023-05-08T16:46:56.676Z,20.63
2023-05-08T16:49:24.229Z,20.56
2023-05-08T16:51:52.120Z,20.37
2023-05-08T16:54:19.807Z,20.23
2023-05-08T16:56:47.509Z,20.12
2023-05-08T16:59:16.398Z,19.96
2023-05-08T17:01:44.273Z,19.94
2023-05-08T17:04:12.159Z,19.89
2023-05-08T17:06:40.240Z,19.88
2023-05-08T17:09:08.010Z,19.81
2023-05-08T17:11:35.756Z,19.77
2023-05-08T17:14:03.503Z,19.78
2023-05-08T17:16:32.480Z,19.78
2023-05-08T17:19:01.582Z,19.65
2023-05-08T17:21:30.990Z,19.63
2023-05-08T17:24:00.267Z,19.58
2023-05-08T17:26:28.295Z,19.52
2023-05-08T17:28:56.352Z,19.47
2023-05-08T17:31:23.971Z,19.45
2023-05-08T17:33:53.005Z,19.36
2023-05-08T17:36:20.572Z,19.24
2023-05-08T17:38:50.403Z,19.21
2023-05-08T17:41:17.969Z,19.17
2023-05-08T17:43:45.665Z,19.11
2023-05-08T17:46:13.393Z,19.04
2023-05-08T17:48:41.354Z,18.95
2023-05-08T17:51:13.932Z,18.88
2023-05-08T17:53:41.639Z,18.81
2023-05-08T17:56:09.563Z,18.79
2023-05-08T17:58:37.271Z,18.74
2023-05-08T18:01:04.990Z,18.65
2023-05-08T18:03:32.653Z,18.61
2023-05-08T18:06:00.265Z,18.62
2023-05-08T18:08:30.261Z,18.55
2023-05-08T18:10:57.991Z,18.53
2023-05-08T18:13:25.732Z,18.46
2023-05-08T18:15:53.724Z,18.40
2023-05-08T18:18:21.324Z,18.35
2023-05-08T18:20:48.912Z,18.25
2023-05-08T18:23:16.511Z,18.22
2023-05-08T18:25:45.633Z,18.18
2023-05-08T18:28:13.206Z,18.09
2023-05-08T18:30:41.235Z,18.00
2023-05-08T18:33:08.857Z,17.91
2023-05-08T18:35:36.797Z,17.82
2023-05-08T18:38:04.364Z,17.75
2023-05-08T18:40:32.146Z,17.66
2023-05-08T18:43:01.258Z,17.48
2023-05-08T18:45:28.972Z,17.32
2023-05-08T18:47:57.559Z,17.23
2023-05-08T18:50:25.440Z,17.18
2023-05-08T18:52:53.134Z,17.10
2023-05-08T18:55:20.797Z,17.04
2023-05-08T18:57:49.022Z,17.02
2023-05-08T19:00:18.842Z,17.10
2023-05-08T19:02:46.506Z,17.04
2023-05-08T19:05:14.661Z,17.05
2023-05-08T19:07:43.734Z,17.00
2023-05-08T19:10:11.631Z,16.95
2023-05-08T19:12:39.419Z,16.93
2023-05-08T19:15:09.178Z,16.87
2023-05-08T19:17:38.180Z,16.81
2023-05-08T19:20:06.908Z,16.73
2023-05-08T19:22:35.839Z,16.66
2023-05-08T19:25:03.876Z,16.60
2023-05-08T19:27:32.070Z,16.54
2023-05-08T19:29:59.775Z,16.47
2023-05-08T19:32:27.649Z,16.42
2023-05-08T19:34:57.451Z,16.35
2023-05-08T19:37:25.412Z,16.31
2023-05-08T19:39:53.007Z,16.25
2023-05-08T19:42:20.607Z,16.20
2023-05-08T19:44:48.404Z,16.14
2023-05-08T19:47:16.114Z,16.08
2023-05-08T19:49:43.878Z,16.03
2023-05-08T19:52:12.797Z,15.98
2023-05-08T19:54:40.414Z,15.94
2023-05-08T19:57:07.988Z,15.89
2023-05-08T19:59:35.734Z,15.83
2023-05-08T20:02:03.328Z,15.78
2023-05-08T20:06:58.895Z,15.68
2023-05-08T20:09:27.858Z,15.62
2023-05-08T20:11:56.142Z,15.55
2023-05-08T20:14:23.944Z,15.48
2023-05-08T20:16:53.097Z,15.43
2023-05-08T20:19:20.662Z,15.33
2023-05-08T20:21:48.755Z,15.25
2023-05-08T20:24:16.368Z,15.19
2023-05-08T20:26:45.466Z,15.14
2023-05-08T20:29:13.050Z,15.10
2023-05-08T20:31:41.240Z,15.06
2023-05-08T20:34:08.875Z,15.01
2023-05-08T20:36:36.649Z,14.98
2023-05-08T20:39:04.323Z,14.96
2023-05-08T20:41:32.504Z,14.93
2023-05-08T20:44:01.465Z,14.94
2023-05-08T20:46:29.331Z,14.92
2023-05-08T20:48:59.144Z,14.90
2023-05-08T20:51:26.981Z,14.88
2023-05-08T20:53:54.615Z,14.91
2023-05-08T20:56:22.720Z,14.87
2023-05-08T20:58:50.421Z,14.83
2023-05-08T21:01:20.932Z,14.79
2023-05-08T21:03:48.921Z,14.76
2023-05-08T21:06:16.645Z,14.74
2023-05-08T21:08:44.271Z,14.70
2023-05-08T21:11:12.393Z,14.66
2023-05-08T21:13:40.019Z,14.64
2023-05-08T21:16:08.273Z,14.64
2023-05-08T21:18:37.527Z,14.65
2023-05-08T21:21:05.148Z,14.63
2023-05-08T21:23:32.750Z,14.59
2023-05-08T21:26:00.530Z,14.55
2023-05-08T21:28:28.153Z,14.50
2023-05-08T21:30:55.764Z,14.47
2023-05-08T21:33:23.382Z,14.40
2023-05-08T21:35:52.389Z,14.36
2023-05-08T21:38:20.016Z,14.31
2023-05-08T21:40:47.640Z,14.28
2023-05-08T21:43:15.313Z,14.20
2023-05-08T21:45:42.949Z,14.16
2023-05-08T21:48:10.598Z,14.07
2023-05-08T21:50:38.250Z,13.99
2023-05-08T21:53:07.410Z,13.95
2023-05-08T21:55:35.024Z,13.90
2023-05-08T21:58:02.780Z,13.85
2023-05-08T22:00:30.560Z,13.81
2023-05-08T22:02:58.206Z,13.73
2023-05-08T22:05:25.883Z,13.69
2023-05-08T22:07:53.911Z,13.63
2023-05-08T22:10:24.698Z,13.58
2023-05-08T22:12:52.434Z,13.49
2023-05-08T22:15:29.821Z,13.42
2023-05-08T22:17:58.608Z,13.34
2023-05-08T22:20:26.531Z,13.29
2023-05-08T22:22:54.245Z,13.25
2023-05-08T22:25:23.419Z,13.18
2023-05-08T22:27:51.289Z,13.13
2023-05-08T22:30:18.988Z,13.10
2023-05-08T22:32:53.669Z,13.05
2023-05-08T22:35:23.050Z,12.94
2023-05-08T22:37:50.933Z,12.90
2023-05-08T22:40:18.872Z,12.82
2023-05-08T22:42:48.363Z,12.76
2023-05-08T22:45:16.245Z,12.70
2023-05-08T22:47:44.325Z,12.67
2023-05-08T22:50:12.451Z,12.62
2023-05-08T22:52:40.799Z,12.59
2023-05-08T22:55:09.558Z,12.55
2023-05-08T22:57:37.521Z,12.51
2023-05-08T23:00:08.801Z,12.48
2023-05-08T23:02:36.887Z,12.45
2023-05-08T23:05:05.093Z,12.41
2023-05-08T23:07:32.775Z,12.37
2023-05-08T23:10:00.602Z,12.29
2023-05-08T23:12:28.256Z,12.26
2023-05-08T23:14:56.084Z,12.15
2023-05-08T23:17:25.149Z,12.11
2023-05-08T23:19:52.823Z,12.07
2023-05-08T23:22:20.464Z,12.04
2023-05-08T23:24:48.879Z,11.98
2023-05-08T23:27:16.518Z,11.98
2023-05-08T23:29:44.279Z,11.95
2023-05-08T23:32:11.918Z,11.95
2023-05-08T23:34:43.479Z,11.94
2023-05-08T23:37:11.117Z,11.92
2023-05-08T23:39:41.403Z,11.88
2023-05-08T23:42:09.293Z,11.80
2023-05-08T23:44:37.246Z,11.72
2023-05-08T23:47:05.002Z,11.69
2023-05-08T23:49:32.931Z,11.72
2023-05-08T23:52:01.890Z,11.71
2023-05-08T23:54:29.655Z,11.71
2023-05-08T23:56:57.384Z,11.69
2023-05-08T23:59:24.984Z,11.69
